createdAt,value
2023-05-23T00:01:00.751Z,100.00
2023-05-23T00:03:28.058Z,100.00
2023-05-23T00:05:55.832Z,100.00
2023-05-23T00:08:22.062Z,100.00
2023-05-23T00:10:48.202Z,100.00
2023-05-23T00:13:14.378Z,100.00
2023-05-23T00:15:41.703Z,100.00
2023-05-23T00:18:11.014Z,100.00
2023-05-23T00:20:40.163Z,100.00
2023-05-23T00:23:10.022Z,100.00
2023-05-23T00:25:36.804Z,100.00
2023-05-23T00:28:04.239Z,100.00
2023-05-23T00:30:31.716Z,100.00
2023-05-23T00:32:58.338Z,100.00
2023-05-23T00:35:24.611Z,100.00
2023-05-23T00:37:51.230Z,100.00
2023-05-23T00:40:18.242Z,100.00
2023-05-23T00:42:45.006Z,100.00
2023-05-23T00:45:14.571Z,100.00
2023-05-23T00:47:41.227Z,100.00
2023-05-23T00:50:14.076Z,100.00
2023-05-23T00:52:40.624Z,100.00
2023-05-23T00:55:07.899Z,100.00
2023-05-23T00:57:39.004Z,100.00
2023-05-23T01:00:09.452Z,100.00
2023-05-23T01:02:40.930Z,100.00
2023-05-23T01:05:07.515Z,100.00
2023-05-23T01:07:33.664Z,100.00
2023-05-23T01:10:00.357Z,100.00
2023-05-23T01:12:56.434Z,100.00
2023-05-23T01:15:27.116Z,100.00
2023-05-23T01:17:59.183Z,100.00
2023-05-23T01:20:32.205Z,100.00
2023-05-23T01:23:00.977Z,100.00
2023-05-23T01:25:42.301Z,100.00
2023-05-23T01:28:11.685Z,100.00
2023-05-23T01:30:40.375Z,100.00
2023-05-23T01:33:07.905Z,100.00
2023-05-23T01:35:34.343Z,100.00
2023-05-23T01:38:00.523Z,100.00
2023-05-23T01:40:26.785Z,100.00
2023-05-23T01:42:55.024Z,100.00
2023-05-23T01:45:21.324Z,100.00
2023-05-23T01:47:49.724Z,100.00
2023-05-23T01:50:16.428Z,100.00
2023-05-23T01:52:42.733Z,100.00
2023-05-23T01:55:11.165Z,100.00
2023-05-23T01:57:37.588Z,100.00
2023-05-23T02:00:06.085Z,100.00
2023-05-23T02:02:35.300Z,100.00
2023-05-23T02:05:01.439Z,100.00
2023-05-23T02:07:27.601Z,100.00
2023-05-23T02:09:55.494Z,100.00
2023-05-23T02:12:21.580Z,100.00
2023-05-23T02:14:49.343Z,100.00
2023-05-23T02:17:16.156Z,100.00
2023-05-23T02:19:42.608Z,100.00
2023-05-23T02:22:08.753Z,100.00
2023-05-23T02:24:35.014Z,100.00
2023-05-23T02:27:01.190Z,100.00
2023-05-23T02:29:27.287Z,100.00
2023-05-23T02:31:53.362Z,100.00
2023-05-23T02:34:19.449Z,100.00
2023-05-23T02:36:45.636Z,100.00
2023-05-23T02:39:11.749Z,100.00
2023-05-23T02:41:37.985Z,100.00
2023-05-23T02:44:04.152Z,100.00
2023-05-23T02:46:30.290Z,100.00
2023-05-23T02:48:56.490Z,100.00
2023-05-23T02:51:22.618Z,100.00
2023-05-23T02:53:48.783Z,100.00
2023-05-23T02:56:15.436Z,100.00
2023-05-23T02:58:41.786Z,100.00
2023-05-23T03:01:08.240Z,100.00
2023-05-23T03:03:34.659Z,100.00
2023-05-23T03:06:02.620Z,100.00
2023-05-23T03:08:28.713Z,100.00
2023-05-23T03:10:54.921Z,100.00
2023-05-23T03:13:21.522Z,100.00
2023-05-23T03:15:47.663Z,100.00
2023-05-23T03:18:13.840Z,100.00
2023-05-23T03:20:40.031Z,100.00
2023-05-23T03:23:06.157Z,100.00
2023-05-23T03:25:32.224Z,100.00
2023-05-23T03:27:58.315Z,100.00
2023-05-23T03:30:24.375Z,100.00
2023-05-23T03:32:50.571Z,100.00
2023-05-23T03:35:16.749Z,100.00
2023-05-23T03:37:42.886Z,100.00
2023-05-23T03:40:09.332Z,100.00
2023-05-23T03:42:36.326Z,100.00
2023-05-23T03:45:02.685Z,100.00
2023-05-23T03:47:28.788Z,100.00
2023-05-23T03:49:54.948Z,100.00
2023-05-23T03:52:21.031Z,100.00
2023-05-23T03:54:47.155Z,100.00
2023-05-23T03:57:13.314Z,100.00
2023-05-23T03:59:39.489Z,100.00
2023-05-23T04:02:05.914Z,100.00
2023-05-23T04:04:32.095Z,100.00
2023-05-23T04:06:58.634Z,100.00
2023-05-23T04:09:24.723Z,100.00
2023-05-23T04:11:51.367Z,100.00
2023-05-23T04:14:19.454Z,100.00
2023-05-23T04:16:47.464Z,100.00
2023-05-23T04:19:13.609Z,100.00
2023-05-23T04:21:39.777Z,100.00
2023-05-23T04:24:06.161Z,100.00
2023-05-23T04:26:32.427Z,100.00
2023-05-23T04:28:58.625Z,100.00
2023-05-23T04:31:25.002Z,100.00
2023-05-23T04:33:51.777Z,100.00
2023-05-23T04:36:18.171Z,100.00
2023-05-23T04:38:44.315Z,100.00
2023-05-23T04:41:10.771Z,100.00
2023-05-23T04:43:41.898Z,100.00
2023-05-23T04:46:09.422Z,100.00
2023-05-23T04:48:36.576Z,100.00
2023-05-23T04:51:05.924Z,100.00
2023-05-23T04:53:32.003Z,100.00
2023-05-23T04:55:58.671Z,100.00
2023-05-23T04:58:24.981Z,100.00
2023-05-23T05:00:51.143Z,100.00
2023-05-23T05:03:17.277Z,100.00
2023-05-23T05:05:43.393Z,100.00
2023-05-23T05:08:09.526Z,100.00
2023-05-23T05:10:35.706Z,100.00
2023-05-23T05:13:01.820Z,100.00
2023-05-23T05:15:27.906Z,100.00
2023-05-23T05:17:54.116Z,100.00
2023-05-23T05:20:21.067Z,100.00
2023-05-23T05:22:47.340Z,100.00
2023-05-23T05:25:13.590Z,100.00
2023-05-23T05:27:39.750Z,100.00
2023-05-23T05:30:07.363Z,100.00
2023-05-23T05:32:33.613Z,100.00
2023-05-23T05:35:00.449Z,100.00
2023-05-23T05:37:26.598Z,100.00
2023-05-23T05:39:53.850Z,100.00
2023-05-23T05:42:22.797Z,100.00
2023-05-23T05:44:49.177Z,100.00
2023-05-23T05:47:15.445Z,100.00
2023-05-23T05:49:41.575Z,100.00
2023-05-23T05:52:08.297Z,100.00
2023-05-23T05:54:34.428Z,100.00
2023-05-23T05:57:00.565Z,100.00
2023-05-23T05:59:26.986Z,100.00
2023-05-23T06:01:53.183Z,100.00
2023-05-23T06:04:19.326Z,100.00
2023-05-23T06:06:45.515Z,100.00
2023-05-23T06:09:11.626Z,100.00
2023-05-23T06:11:41.152Z,100.00
2023-05-23T06:14:07.559Z,100.00
2023-05-23T06:16:34.221Z,100.00
2023-05-23T06:19:00.571Z,100.00
2023-05-23T06:21:27.143Z,100.00
2023-05-23T06:23:53.320Z,100.00
2023-05-23T06:26:19.534Z,100.00
2023-05-23T06:28:45.719Z,100.00
2023-05-23T06:31:12.036Z,100.00
2023-05-23T06:33:38.227Z,100.00
2023-05-23T06:36:04.468Z,100.00
2023-05-23T06:38:32.953Z,100.00
2023-05-23T06:40:59.684Z,100.00
2023-05-23T06:43:25.830Z,100.00
2023-05-23T06:45:52.014Z,100.00
2023-05-23T06:48:18.130Z,100.00
2023-05-23T06:50:44.344Z,100.00
2023-05-23T06:53:10.564Z,100.00
2023-05-23T06:55:36.705Z,100.00
2023-05-23T06:58:03.661Z,100.00
2023-05-23T07:00:31.113Z,100.00
2023-05-23T07:03:00.675Z,100.00
2023-05-23T07:05:27.691Z,100.00
2023-05-23T07:07:54.060Z,100.00
2023-05-23T07:10:20.855Z,100.00
2023-05-23T07:12:47.137Z,100.00
2023-05-23T07:15:14.322Z,100.00
2023-05-23T07:17:40.646Z,100.00
2023-05-23T07:20:07.594Z,100.00
2023-05-23T07:22:33.746Z,100.00
2023-05-23T07:25:00.044Z,100.00
2023-05-23T07:27:26.717Z,100.00
2023-05-23T07:29:52.905Z,100.00
2023-05-23T07:32:19.058Z,100.00
2023-05-23T07:34:45.238Z,100.00
2023-05-23T07:37:11.429Z,100.00
2023-05-23T07:39:37.598Z,100.00
2023-05-23T07:42:03.915Z,100.00
2023-05-23T07:44:30.206Z,100.00
2023-05-23T07:46:56.439Z,100.00
2023-05-23T07:49:22.728Z,100.00
2023-05-23T07:51:48.938Z,100.00
2023-05-23T07:54:16.602Z,100.00
2023-05-23T07:56:43.073Z,100.00
2023-05-23T07:59:09.442Z,100.00
2023-05-23T08:01:35.877Z,100.00
2023-05-23T08:04:03.170Z,100.00
2023-05-23T08:06:29.333Z,100.00
2023-05-23T08:08:55.691Z,100.00
2023-05-23T08:11:21.861Z,100.00
2023-05-23T08:13:48.027Z,100.00
2023-05-23T08:16:14.223Z,100.00
2023-05-23T08:18:40.808Z,100.00
2023-05-23T08:21:07.128Z,100.00
2023-05-23T08:23:33.312Z,100.00
2023-05-23T08:25:59.489Z,100.00
2023-05-23T08:28:26.215Z,100.00
2023-05-23T08:30:53.355Z,100.00
2023-05-23T08:33:19.661Z,100.00
2023-05-23T08:35:45.964Z,100.00
2023-05-23T08:38:12.485Z,100.00
2023-05-23T08:40:39.416Z,100.00
2023-05-23T08:43:06.193Z,100.00
2023-05-23T08:45:33.955Z,100.00
2023-05-23T08:48:01.155Z,100.00
2023-05-23T08:50:28.996Z,100.00
2023-05-23T08:52:57.232Z,100.00
2023-05-23T08:55:25.764Z,100.00
2023-05-23T08:57:52.977Z,100.00
2023-05-23T09:00:19.961Z,100.00
2023-05-23T09:02:46.469Z,100.00
2023-05-23T09:05:13.152Z,100.00
2023-05-23T09:07:39.724Z,100.00
2023-05-23T09:10:07.764Z,100.00
2023-05-23T09:12:36.479Z,100.00
2023-05-23T09:15:04.534Z,100.00
2023-05-23T09:17:32.734Z,100.00
2023-05-23T09:20:00.117Z,100.00
2023-05-23T09:22:27.347Z,100.00
2023-05-23T09:24:54.987Z,100.00
2023-05-23T09:27:21.774Z,100.00
2023-05-23T09:29:49.257Z,100.00
2023-05-23T09:32:17.455Z,100.00
2023-05-23T09:34:50.114Z,100.00
2023-05-23T09:37:18.417Z,100.00
2023-05-23T09:39:50.490Z,100.00
2023-05-23T09:42:21.674Z,100.00
2023-05-23T09:44:48.177Z,100.00
2023-05-23T09:47:17.650Z,100.00
2023-05-23T09:49:45.314Z,100.00
2023-05-23T09:52:12.832Z,100.00
2023-05-23T09:54:39.952Z,100.00
2023-05-23T09:57:10.139Z,100.00
2023-05-23T09:59:41.155Z,100.00
2023-05-23T10:02:10.961Z,100.00
2023-05-23T10:04:38.995Z,100.00
2023-05-23T10:07:13.841Z,100.00
2023-05-23T10:09:41.750Z,100.00
2023-05-23T10:12:23.033Z,100.00
2023-05-23T10:14:55.486Z,100.00
2023-05-23T10:17:46.197Z,100.00
2023-05-23T10:20:15.744Z,100.00
2023-05-23T10:22:42.537Z,100.00
2023-05-23T10:25:09.799Z,100.00
2023-05-23T10:27:39.542Z,100.00
2023-05-23T10:30:07.531Z,100.00
2023-05-23T10:32:35.221Z,100.00
2023-05-23T10:35:06.518Z,100.00
2023-05-23T10:37:45.055Z,100.00
2023-05-23T10:40:48.789Z,100.00
2023-05-23T10:43:20.673Z,100.00
2023-05-23T10:45:50.034Z,100.00
2023-05-23T10:48:28.142Z,100.00
2023-05-23T10:51:20.359Z,100.00
2023-05-23T10:53:46.901Z,100.00
2023-05-23T10:56:22.940Z,100.00
2023-05-23T10:58:57.336Z,100.00
2023-05-23T11:01:24.281Z,100.00
2023-05-23T11:03:54.778Z,100.00
2023-05-23T11:06:44.582Z,100.00
2023-05-23T11:09:13.552Z,100.00
2023-05-23T11:11:57.347Z,100.00
2023-05-23T11:14:33.817Z,100.00
2023-05-23T11:17:12.045Z,100.00
2023-05-23T11:19:38.980Z,100.00
2023-05-23T11:22:08.473Z,100.00
2023-05-23T11:24:54.037Z,100.00
2023-05-23T11:27:46.557Z,100.00
2023-05-23T11:30:17.547Z,100.00
2023-05-23T11:32:55.136Z,100.00
2023-05-23T11:35:21.469Z,100.00
2023-05-23T11:37:47.722Z,100.00
2023-05-23T11:40:33.326Z,100.00
2023-05-23T11:43:01.718Z,100.00
2023-05-23T11:45:29.235Z,100.00
2023-05-23T11:47:55.479Z,100.00
2023-05-23T11:50:22.194Z,100.00
2023-05-23T11:52:51.093Z,100.00
2023-05-23T11:55:19.201Z,100.00
2023-05-23T11:57:45.581Z,100.00
2023-05-23T12:00:12.673Z,100.00
2023-05-23T12:02:42.864Z,100.00
2023-05-23T12:05:10.040Z,100.00
2023-05-23T12:07:40.489Z,100.00
2023-05-23T12:10:07.712Z,100.00
2023-05-23T12:12:33.897Z,100.00
2023-05-23T12:15:00.383Z,100.00
2023-05-23T12:17:26.849Z,100.00
2023-05-23T12:19:53.550Z,100.00
2023-05-23T12:22:26.071Z,100.00
2023-05-23T12:24:55.876Z,100.00
2023-05-23T12:27:30.747Z,100.00
2023-05-23T12:30:16.757Z,100.00
2023-05-23T12:32:44.762Z,100.00
2023-05-23T12:35:12.776Z,100.00
2023-05-23T12:37:39.966Z,100.00
2023-05-23T12:40:17.077Z,100.00
2023-05-23T12:42:53.576Z,100.00
2023-05-23T12:45:24.522Z,100.00
2023-05-23T12:47:53.734Z,100.00
2023-05-23T12:50:20.196Z,100.00
2023-05-23T12:52:46.379Z,100.00
2023-05-23T12:55:12.847Z,100.00
2023-05-23T12:57:39.039Z,100.00
2023-05-23T13:00:05.942Z,100.00
2023-05-23T13:02:32.133Z,100.00
2023-05-23T13:04:58.288Z,100.00
2023-05-23T13:07:24.541Z,100.00
2023-05-23T13:09:50.655Z,100.00
2023-05-23T13:12:16.841Z,100.00
2023-05-23T13:14:43.025Z,100.00
2023-05-23T13:17:09.256Z,100.00
2023-05-23T13:19:35.457Z,100.00
2023-05-23T13:22:03.775Z,100.00
2023-05-23T13:24:30.243Z,100.00
2023-05-23T13:26:56.357Z,100.00
2023-05-23T13:29:22.490Z,100.00
2023-05-23T13:31:48.754Z,100.00
2023-05-23T13:34:14.972Z,100.00
2023-05-23T13:36:41.086Z,100.00
2023-05-23T13:39:07.704Z,100.00
2023-05-23T13:41:33.850Z,100.00
2023-05-23T13:43:59.986Z,100.00
2023-05-23T13:46:26.265Z,100.00
2023-05-23T13:48:52.433Z,100.00
2023-05-23T13:51:18.527Z,100.00
2023-05-23T13:53:45.093Z,100.00
2023-05-23T13:56:11.515Z,100.00
2023-05-23T13:58:37.656Z,100.00
2023-05-23T14:01:03.842Z,100.00
2023-05-23T14:03:30.025Z,100.00
2023-05-23T14:05:56.158Z,100.00
2023-05-23T14:08:22.298Z,100.00
2023-05-23T14:10:48.551Z,100.00
2023-05-23T14:13:14.828Z,100.00
2023-05-23T14:15:41.570Z,100.00
2023-05-23T14:18:07.969Z,100.00
2023-05-23T14:20:34.328Z,100.00
2023-05-23T14:23:00.486Z,100.00
2023-05-23T14:25:26.627Z,100.00
2023-05-23T14:27:52.828Z,100.00
2023-05-23T14:30:19.147Z,100.00
2023-05-23T14:32:45.439Z,100.00
2023-05-23T14:35:11.730Z,100.00
2023-05-23T14:37:38.437Z,100.00
2023-05-23T14:40:06.186Z,100.00
2023-05-23T14:42:32.524Z,100.00
2023-05-23T14:44:58.667Z,100.00
2023-05-23T14:47:24.938Z,100.00
2023-05-23T14:49:51.083Z,100.00
2023-05-23T14:52:17.246Z,100.00
2023-05-23T14:54:43.364Z,100.00
2023-05-23T14:57:09.743Z,100.00
2023-05-23T14:59:35.980Z,100.00
2023-05-23T15:02:03.120Z,100.00
2023-05-23T15:04:30.136Z,100.00
2023-05-23T15:06:56.467Z,100.00
2023-05-23T15:09:22.859Z,100.00
2023-05-23T15:11:49.019Z,100.00
2023-05-23T15:14:18.177Z,100.00
2023-05-23T15:16:45.020Z,97.12
2023-05-23T15:19:11.205Z,98.41
2023-05-23T15:21:37.369Z,96.60
2023-05-23T15:24:03.711Z,96.74
2023-05-23T15:26:30.175Z,92.96
2023-05-23T15:28:56.342Z,91.64
2023-05-23T15:31:22.576Z,91.49
2023-05-23T15:33:48.876Z,88.12
2023-05-23T15:36:15.108Z,90.55
2023-05-23T15:38:41.419Z,90.31
2023-05-23T15:41:07.618Z,89.40
2023-05-23T15:43:34.704Z,91.62
2023-05-23T15:46:01.366Z,93.85
2023-05-23T15:48:27.640Z,87.97
2023-05-23T15:50:53.842Z,89.54
2023-05-23T15:53:20.725Z,90.26
2023-05-23T15:55:46.876Z,88.63
2023-05-23T15:58:13.289Z,91.75
2023-05-23T16:00:40.105Z,89.90
2023-05-23T16:03:06.462Z,90.35
2023-05-23T16:05:32.808Z,87.60
2023-05-23T16:07:59.012Z,92.59
2023-05-23T16:10:25.270Z,89.30
2023-05-23T16:12:51.545Z,89.62
2023-05-23T16:15:17.753Z,88.65
2023-05-23T16:17:44.153Z,84.83
2023-05-23T16:20:10.693Z,85.05
2023-05-23T16:22:37.043Z,88.85
2023-05-23T16:25:05.378Z,88.98
2023-05-23T16:27:31.581Z,90.42
2023-05-23T16:29:57.715Z,89.68
2023-05-23T16:32:23.942Z,89.79
2023-05-23T16:34:54.012Z,88.44
2023-05-23T16:37:20.949Z,85.95
2023-05-23T16:39:47.090Z,89.05
2023-05-23T16:42:13.498Z,84.37
2023-05-23T16:44:40.333Z,82.57
2023-05-23T16:47:06.560Z,87.04
2023-05-23T16:49:32.776Z,85.47
2023-05-23T16:51:58.955Z,82.12
2023-05-23T16:54:25.098Z,78.62
2023-05-23T16:56:51.198Z,73.38
2023-05-23T16:59:17.492Z,75.14
2023-05-23T17:01:43.739Z,76.44
2023-05-23T17:04:09.960Z,77.70
2023-05-23T17:06:36.760Z,81.01
2023-05-23T17:09:02.977Z,80.66
2023-05-23T17:11:29.113Z,77.16
2023-05-23T17:13:55.296Z,77.53
2023-05-23T17:16:21.854Z,79.83
2023-05-23T17:18:48.094Z,79.56
2023-05-23T17:21:14.221Z,79.25
2023-05-23T17:23:41.004Z,79.00
2023-05-23T17:26:07.164Z,81.81
2023-05-23T17:28:33.364Z,78.50
2023-05-23T17:30:59.513Z,80.20
2023-05-23T17:33:25.744Z,76.39
2023-05-23T17:35:51.940Z,80.84
2023-05-23T17:38:18.759Z,77.19
2023-05-23T17:40:45.455Z,79.81
2023-05-23T17:43:11.990Z,79.01
2023-05-23T17:45:38.201Z,79.20
2023-05-23T17:48:04.600Z,79.95
2023-05-23T17:50:30.813Z,82.30
2023-05-23T17:52:57.002Z,83.22
2023-05-23T17:55:23.204Z,83.05
2023-05-23T17:57:49.329Z,82.48
2023-05-23T18:00:16.888Z,82.90
2023-05-23T18:02:43.125Z,85.06
2023-05-23T18:05:09.868Z,82.41
2023-05-23T18:07:36.057Z,82.21
2023-05-23T18:10:02.647Z,82.88
2023-05-23T18:12:28.807Z,82.15
2023-05-23T18:14:55.124Z,81.16
2023-05-23T18:17:21.651Z,83.14
2023-05-23T18:19:47.822Z,87.15
2023-05-23T18:22:15.872Z,85.49
2023-05-23T18:24:42.577Z,84.43
2023-05-23T18:27:08.732Z,82.90
2023-05-23T18:29:35.114Z,81.83
2023-05-23T18:32:01.478Z,81.73
2023-05-23T18:34:29.104Z,80.76
2023-05-23T18:36:55.611Z,79.35
2023-05-23T18:39:22.227Z,85.75
2023-05-23T18:41:48.399Z,82.83
2023-05-23T18:44:14.749Z,79.80
2023-05-23T18:46:41.218Z,82.63
2023-05-23T18:49:07.429Z,82.22
2023-05-23T18:51:34.693Z,80.97
2023-05-23T18:54:00.962Z,82.77
2023-05-23T18:56:27.169Z,82.37
2023-05-23T18:58:53.408Z,84.37
2023-05-23T19:01:19.608Z,80.11
2023-05-23T19:03:45.972Z,79.33
2023-05-23T19:06:12.230Z,80.07
2023-05-23T19:08:38.509Z,81.58
2023-05-23T19:11:05.273Z,80.46
2023-05-23T19:13:31.445Z,80.56
2023-05-23T19:15:57.659Z,78.59
2023-05-23T19:18:23.892Z,77.89
2023-05-23T19:20:53.866Z,79.86
2023-05-23T19:23:20.237Z,79.23
2023-05-23T19:25:46.806Z,79.06
2023-05-23T19:28:14.625Z,77.63
2023-05-23T19:30:41.162Z,79.61
2023-05-23T19:33:07.545Z,80.29
2023-05-23T19:35:33.877Z,79.32
2023-05-23T19:38:01.190Z,80.32
2023-05-23T19:40:27.671Z,79.46
2023-05-23T19:42:54.086Z,80.44
2023-05-23T19:45:20.587Z,80.09
2023-05-23T19:47:46.790Z,80.45
2023-05-23T19:50:13.374Z,80.34
2023-05-23T19:52:40.624Z,81.99
2023-05-23T19:55:08.302Z,82.71
2023-05-23T19:57:34.416Z,83.81
2023-05-23T20:00:00.692Z,83.31
2023-05-23T20:02:26.966Z,84.07
2023-05-23T20:04:53.096Z,83.73
2023-05-23T20:07:19.211Z,83.80
2023-05-23T20:09:45.436Z,83.54
2023-05-23T20:12:11.613Z,83.87
2023-05-23T20:14:37.813Z,85.37
2023-05-23T20:17:03.949Z,84.22
2023-05-23T20:19:30.076Z,86.06
2023-05-23T20:21:56.535Z,85.30
2023-05-23T20:24:23.628Z,86.00
2023-05-23T20:26:50.034Z,86.73
2023-05-23T20:29:16.103Z,86.21
2023-05-23T20:31:42.239Z,85.47
2023-05-23T20:34:08.539Z,86.50
2023-05-23T20:36:34.670Z,86.75
2023-05-23T20:39:00.820Z,86.26
2023-05-23T20:41:28.766Z,86.51
2023-05-23T20:43:54.890Z,88.03
2023-05-23T20:46:21.485Z,89.10
2023-05-23T20:48:47.592Z,88.25
2023-05-23T20:51:13.768Z,88.42
2023-05-23T20:53:39.921Z,88.55
2023-05-23T20:56:09.431Z,88.10
2023-05-23T20:58:35.941Z,87.28
2023-05-23T21:01:02.120Z,88.78
2023-05-23T21:03:28.401Z,91.33
2023-05-23T21:05:54.630Z,90.78
2023-05-23T21:08:21.811Z,88.10
2023-05-23T21:10:51.463Z,89.84
2023-05-23T21:13:19.534Z,89.10
2023-05-23T21:15:45.661Z,88.49
2023-05-23T21:18:11.857Z,91.80
2023-05-23T21:20:38.058Z,98.88
2023-05-23T21:23:04.526Z,100.00
2023-05-23T21:25:30.640Z,99.07
2023-05-23T21:27:56.736Z,91.71
2023-05-23T21:30:24.547Z,91.54
2023-05-23T21:32:52.441Z,91.98
2023-05-23T21:35:18.588Z,94.15
2023-05-23T21:37:44.708Z,93.43
2023-05-23T21:40:11.262Z,93.97
2023-05-23T21:42:37.389Z,93.11
2023-05-23T21:45:03.981Z,94.40
2023-05-23T21:47:30.256Z,96.71
2023-05-23T21:49:56.436Z,94.05
2023-05-23T21:52:22.562Z,91.91
2023-05-23T21:54:49.157Z,93.62
2023-05-23T21:57:15.594Z,98.67
2023-05-23T21:59:41.720Z,96.34
2023-05-23T22:02:07.964Z,91.44
2023-05-23T22:04:34.166Z,93.61
2023-05-23T22:07:00.592Z,94.69
2023-05-23T22:09:26.773Z,92.90
2023-05-23T22:11:53.161Z,93.04
2023-05-23T22:14:19.398Z,91.64
2023-05-23T22:16:45.724Z,98.41
2023-05-23T22:19:11.948Z,96.83
2023-05-23T22:21:38.190Z,92.59
2023-05-23T22:24:04.621Z,91.49
2023-05-23T22:26:31.374Z,93.53
2023-05-23T22:28:57.531Z,95.09
2023-05-23T22:31:23.818Z,97.01
2023-05-23T22:33:50.517Z,95.57
2023-05-23T22:36:16.953Z,92.64
2023-05-23T22:38:43.204Z,92.19
2023-05-23T22:41:09.375Z,93.46
2023-05-23T22:43:36.560Z,95.54
2023-05-23T22:46:02.906Z,92.99
2023-05-23T22:48:32.848Z,91.50
2023-05-23T22:51:02.601Z,92.01
2023-05-23T22:53:29.272Z,93.13
2023-05-23T22:55:55.729Z,97.95
2023-05-23T22:58:21.933Z,95.62
2023-05-23T23:00:48.104Z,92.19
2023-05-23T23:03:14.670Z,92.52
2023-05-23T23:05:41.056Z,92.58
2023-05-23T23:08:07.215Z,90.43
2023-05-23T23:10:33.356Z,91.04
2023-05-23T23:12:59.484Z,91.49
2023-05-23T23:15:25.646Z,91.47
2023-05-23T23:17:51.845Z,96.00
2023-05-23T23:20:18.690Z,92.30
2023-05-23T23:22:46.315Z,92.39
2023-05-23T23:25:12.483Z,92.88
2023-05-23T23:27:39.229Z,93.63
2023-05-23T23:30:06.635Z,92.35
2023-05-23T23:32:34.373Z,94.12
2023-05-23T23:35:00.852Z,96.00
2023-05-23T23:37:27.020Z,93.61
2023-05-23T23:39:53.119Z,92.98
2023-05-23T23:42:20.040Z,92.57
2023-05-23T23:44:46.145Z,93.82
2023-05-23T23:47:12.280Z,92.97
2023-05-23T23:49:38.446Z,93.26
2023-05-23T23:52:05.091Z,94.17
2023-05-23T23:54:31.192Z,94.83
2023-05-23T23:56:57.315Z,93.88
2023-05-23T23:59:23.448Z,95.52
